sensor_id;sensor_type;location;lat;lon;timestamp;P1;durP1;ratioP1;P2;durP2;ratioP2
71484;SDS011;59300;52.074;4.758;2022-07-22T00:00:36;9.18;;;2.55;;
71484;SDS011;59300;52.074;4.758;2022-07-22T00:03:55;8.50;;;2.13;;
71484;SDS011;59300;52.074;4.758;2022-07-22T00:07:14;8.90;;;2.30;;
71484;SDS011;59300;52.074;4.758;2022-07-22T00:10:33;10.00;;;2.30;;
71484;SDS011;59300;52.074;4.758;2022-07-22T00:13:52;8.45;;;2.90;;
71484;SDS011;59300;52.074;4.758;2022-07-22T00:17:11;10.77;;;2.47;;
71484;SDS011;59300;52.074;4.758;2022-07-22T00:20:30;10.50;;;2.40;;
71484;SDS011;59300;52.074;4.758;2022-07-22T00:23:49;9.23;;;2.53;;
71484;SDS011;59300;52.074;4.758;2022-07-22T00:27:08;7.13;;;2.30;;
71484;SDS011;59300;52.074;4.758;2022-07-22T00:30:27;10.45;;;2.60;;
71484;SDS011;59300;52.074;4.758;2022-07-22T00:33:46;23.27;;;2.95;;
71484;SDS011;59300;52.074;4.758;2022-07-22T00:37:05;14.48;;;2.92;;
71484;SDS011;59300;52.074;4.758;2022-07-22T00:40:24;7.70;;;2.33;;
71484;SDS011;59300;52.074;4.758;2022-07-22T00:44:19;10.23;;;2.40;;
71484;SDS011;59300;52.074;4.758;2022-07-22T00:47:31;7.30;;;2.50;;
71484;SDS011;59300;52.074;4.758;2022-07-22T00:50:50;9.75;;;2.33;;
71484;SDS011;59300;52.074;4.758;2022-07-22T00:54:10;7.10;;;2.55;;
71484;SDS011;59300;52.074;4.758;2022-07-22T00:57:29;10.10;;;2.72;;
71484;SDS011;59300;52.074;4.758;2022-07-22T01:00:49;7.28;;;2.47;;
71484;SDS011;59300;52.074;4.758;2022-07-22T01:04:08;12.75;;;2.45;;
71484;SDS011;59300;52.074;4.758;2022-07-22T01:07:27;8.15;;;2.38;;
71484;SDS011;59300;52.074;4.758;2022-07-22T01:10:46;9.98;;;1.98;;
71484;SDS011;59300;52.074;4.758;2022-07-22T01:14:05;8.10;;;2.53;;
71484;SDS011;59300;52.074;4.758;2022-07-22T01:17:24;5.70;;;2.20;;
71484;SDS011;59300;52.074;4.758;2022-07-22T01:20:43;6.32;;;2.20;;
71484;SDS011;59300;52.074;4.758;2022-07-22T01:24:02;5.85;;;2.13;;
71484;SDS011;59300;52.074;4.758;2022-07-22T01:27:24;8.35;;;2.20;;
71484;SDS011;59300;52.074;4.758;2022-07-22T01:30:43;9.50;;;2.60;;
71484;SDS011;59300;52.074;4.758;2022-07-22T01:34:01;6.28;;;2.10;;
71484;SDS011;59300;52.074;4.758;2022-07-22T01:37:22;5.35;;;2.05;;
71484;SDS011;59300;52.074;4.758;2022-07-22T01:40:42;9.45;;;2.40;;
71484;SDS011;59300;52.074;4.758;2022-07-22T01:44:02;6.78;;;2.22;;
71484;SDS011;59300;52.074;4.758;2022-07-22T01:47:21;7.35;;;2.35;;
71484;SDS011;59300;52.074;4.758;2022-07-22T01:50:41;7.03;;;2.35;;
71484;SDS011;59300;52.074;4.758;2022-07-22T01:54:00;3.65;;;1.83;;
71484;SDS011;59300;52.074;4.758;2022-07-22T01:57:19;7.07;;;2.47;;
71484;SDS011;59300;52.074;4.758;2022-07-22T02:00:42;10.85;;;2.15;;
71484;SDS011;59300;52.074;4.758;2022-07-22T02:04:01;6.78;;;2.03;;
71484;SDS011;59300;52.074;4.758;2022-07-22T02:07:21;6.60;;;2.20;;
71484;SDS011;59300;52.074;4.758;2022-07-22T02:10:40;6.78;;;2.38;;
71484;SDS011;59300;52.074;4.758;2022-07-22T02:13:59;4.90;;;1.83;;
71484;SDS011;59300;52.074;4.758;2022-07-22T02:17:21;7.38;;;2.15;;
71484;SDS011;59300;52.074;4.758;2022-07-22T02:20:40;3.90;;;1.92;;
71484;SDS011;59300;52.074;4.758;2022-07-22T02:23:59;6.15;;;1.98;;
71484;SDS011;59300;52.074;4.758;2022-07-22T02:27:18;5.88;;;1.95;;
71484;SDS011;59300;52.074;4.758;2022-07-22T02:30:37;4.90;;;2.38;;
71484;SDS011;59300;52.074;4.758;2022-07-22T02:33:56;7.22;;;2.85;;
71484;SDS011;59300;52.074;4.758;2022-07-22T02:37:17;7.32;;;2.50;;
71484;SDS011;59300;52.074;4.758;2022-07-22T02:40:36;5.05;;;2.15;;
71484;SDS011;59300;52.074;4.758;2022-07-22T02:43:55;6.20;;;2.13;;
71484;SDS011;59300;52.074;4.758;2022-07-22T02:47:15;5.78;;;2.47;;
71484;SDS011;59300;52.074;4.758;2022-07-22T02:50:36;4.55;;;2.17;;
71484;SDS011;59300;52.074;4.758;2022-07-22T02:53:56;5.28;;;2.30;;
71484;SDS011;59300;52.074;4.758;2022-07-22T02:57:15;5.28;;;1.60;;
71484;SDS011;59300;52.074;4.758;2022-07-22T03:00:35;7.53;;;2.10;;
71484;SDS011;59300;52.074;4.758;2022-07-22T03:03:54;5.35;;;1.90;;
71484;SDS011;59300;52.074;4.758;2022-07-22T03:07:13;7.05;;;2.47;;
71484;SDS011;59300;52.074;4.758;2022-07-22T03:10:33;7.35;;;2.53;;
71484;SDS011;59300;52.074;4.758;2022-07-22T03:13:52;7.30;;;2.38;;
71484;SDS011;59300;52.074;4.758;2022-07-22T03:17:12;5.45;;;2.05;;
71484;SDS011;59300;52.074;4.758;2022-07-22T03:20:31;6.32;;;1.58;;
71484;SDS011;59300;52.074;4.758;2022-07-22T03:23:51;6.32;;;2.30;;
71484;SDS011;59300;52.074;4.758;2022-07-22T03:27:10;5.97;;;2.30;;
71484;SDS011;59300;52.074;4.758;2022-07-22T03:30:28;9.38;;;2.40;;
71484;SDS011;59300;52.074;4.758;2022-07-22T03:33:47;7.22;;;2.05;;
71484;SDS011;59300;52.074;4.758;2022-07-22T03:37:07;5.50;;;2.13;;
71484;SDS011;59300;52.074;4.758;2022-07-22T03:40:26;8.55;;;2.47;;
71484;SDS011;59300;52.074;4.758;2022-07-22T03:43:45;7.40;;;2.25;;
71484;SDS011;59300;52.074;4.758;2022-07-22T03:47:04;9.15;;;2.20;;
71484;SDS011;59300;52.074;4.758;2022-07-22T03:50:23;5.10;;;2.20;;
71484;SDS011;59300;52.074;4.758;2022-07-22T03:53:43;5.75;;;2.08;;
71484;SDS011;59300;52.074;4.758;2022-07-22T03:57:02;8.80;;;2.63;;
71484;SDS011;59300;52.074;4.758;2022-07-22T04:00:21;5.13;;;2.35;;
71484;SDS011;59300;52.074;4.758;2022-07-22T04:03:40;6.13;;;2.20;;
71484;SDS011;59300;52.074;4.758;2022-07-22T04:07:02;7.63;;;2.80;;
71484;SDS011;59300;52.074;4.758;2022-07-22T04:10:27;8.18;;;2.45;;
71484;SDS011;59300;52.074;4.758;2022-07-22T04:13:46;7.65;;;2.50;;
71484;SDS011;59300;52.074;4.758;2022-07-22T04:17:05;8.93;;;2.70;;
71484;SDS011;59300;52.074;4.758;2022-07-22T04:20:24;5.28;;;2.65;;
71484;SDS011;59300;52.074;4.758;2022-07-22T04:24:07;8.25;;;2.55;;
71484;SDS011;59300;52.074;4.758;2022-07-22T04:27:26;9.80;;;3.13;;
71484;SDS011;59300;52.074;4.758;2022-07-22T04:30:45;7.30;;;2.55;;
71484;SDS011;59300;52.074;4.758;2022-07-22T04:34:04;11.38;;;3.03;;
71484;SDS011;59300;52.074;4.758;2022-07-22T04:37:23;5.68;;;2.40;;
71484;SDS011;59300;52.074;4.758;2022-07-22T04:40:43;5.93;;;2.30;;
71484;SDS011;59300;52.074;4.758;2022-07-22T04:44:02;10.00;;;2.50;;
71484;SDS011;59300;52.074;4.758;2022-07-22T04:47:24;6.47;;;2.60;;
71484;SDS011;59300;52.074;4.758;2022-07-22T04:50:43;7.97;;;2.40;;
71484;SDS011;59300;52.074;4.758;2022-07-22T04:54:02;6.10;;;2.20;;
71484;SDS011;59300;52.074;4.758;2022-07-22T04:57:22;8.80;;;2.00;;
71484;SDS011;59300;52.074;4.758;2022-07-22T05:00:42;9.57;;;2.70;;
71484;SDS011;59300;52.074;4.758;2022-07-22T05:04:01;7.10;;;2.15;;
71484;SDS011;59300;52.074;4.758;2022-07-22T05:07:20;7.40;;;2.40;;
71484;SDS011;59300;52.074;4.758;2022-07-22T05:10:39;4.47;;;1.83;;
71484;SDS011;59300;52.074;4.758;2022-07-22T05:13:59;4.80;;;2.10;;
71484;SDS011;59300;52.074;4.758;2022-07-22T05:17:18;4.85;;;1.92;;
71484;SDS011;59300;52.074;4.758;2022-07-22T05:20:50;4.85;;;1.90;;
71484;SDS011;59300;52.074;4.758;2022-07-22T05:24:09;3.75;;;1.85;;
71484;SDS011;59300;52.074;4.758;2022-07-22T05:27:28;8.75;;;2.15;;
71484;SDS011;59300;52.074;4.758;2022-07-22T05:30:48;4.65;;;2.00;;
71484;SDS011;59300;52.074;4.758;2022-07-22T05:34:07;4.13;;;1.70;;
71484;SDS011;59300;52.074;4.758;2022-07-22T05:37:32;19.35;;;2.58;;
71484;SDS011;59300;52.074;4.758;2022-07-22T05:40:51;6.32;;;1.75;;
71484;SDS011;59300;52.074;4.758;2022-07-22T05:44:09;3.85;;;1.65;;
71484;SDS011;59300;52.074;4.758;2022-07-22T05:47:28;4.72;;;1.83;;
71484;SDS011;59300;52.074;4.758;2022-07-22T05:50:47;5.55;;;1.95;;
71484;SDS011;59300;52.074;4.758;2022-07-22T05:54:06;3.85;;;1.80;;
71484;SDS011;59300;52.074;4.758;2022-07-22T05:57:25;4.68;;;2.17;;
71484;SDS011;59300;52.074;4.758;2022-07-22T06:00:45;7.65;;;1.80;;
71484;SDS011;59300;52.074;4.758;2022-07-22T06:04:04;7.10;;;1.80;;
71484;SDS011;59300;52.074;4.758;2022-07-22T06:07:23;3.50;;;1.77;;
71484;SDS011;59300;52.074;4.758;2022-07-22T06:10:49;3.67;;;1.42;;
71484;SDS011;59300;52.074;4.758;2022-07-22T06:14:09;3.08;;;1.50;;
71484;SDS011;59300;52.074;4.758;2022-07-22T06:17:29;3.75;;;1.52;;
71484;SDS011;59300;52.074;4.758;2022-07-22T06:20:49;5.63;;;1.90;;
71484;SDS011;59300;52.074;4.758;2022-07-22T06:24:08;4.35;;;1.70;;
71484;SDS011;59300;52.074;4.758;2022-07-22T06:27:27;4.05;;;1.50;;
71484;SDS011;59300;52.074;4.758;2022-07-22T06:30:47;2.15;;;1.23;;
71484;SDS011;59300;52.074;4.758;2022-07-22T06:34:07;5.90;;;1.25;;
71484;SDS011;59300;52.074;4.758;2022-07-22T06:37:43;3.40;;;1.30;;
71484;SDS011;59300;52.074;4.758;2022-07-22T06:41:03;3.90;;;1.48;;
71484;SDS011;59300;52.074;4.758;2022-07-22T06:48:04;3.00;;;1.30;;
71484;SDS011;59300;52.074;4.758;2022-07-22T06:51:24;4.20;;;1.30;;
71484;SDS011;59300;52.074;4.758;2022-07-22T06:54:43;3.47;;;1.50;;
71484;SDS011;59300;52.074;4.758;2022-07-22T06:58:10;4.15;;;1.30;;
71484;SDS011;59300;52.074;4.758;2022-07-22T07:01:29;5.78;;;1.30;;
71484;SDS011;59300;52.074;4.758;2022-07-22T07:04:53;6.63;;;1.60;;
71484;SDS011;59300;52.074;4.758;2022-07-22T07:08:12;4.43;;;1.73;;
71484;SDS011;59300;52.074;4.758;2022-07-22T07:11:31;4.55;;;1.60;;
71484;SDS011;59300;52.074;4.758;2022-07-22T07:14:51;5.60;;;1.85;;
71484;SDS011;59300;52.074;4.758;2022-07-22T07:18:10;9.23;;;1.85;;
71484;SDS011;59300;52.074;4.758;2022-07-22T07:21:29;3.72;;;1.52;;
71484;SDS011;59300;52.074;4.758;2022-07-22T07:24:49;4.20;;;1.45;;
71484;SDS011;59300;52.074;4.758;2022-07-22T07:28:08;4.28;;;1.23;;
71484;SDS011;59300;52.074;4.758;2022-07-22T07:31:46;6.63;;;1.33;;
71484;SDS011;59300;52.074;4.758;2022-07-22T07:35:07;3.15;;;1.20;;
71484;SDS011;59300;52.074;4.758;2022-07-22T07:38:27;4.20;;;1.40;;
71484;SDS011;59300;52.074;4.758;2022-07-22T07:41:46;4.30;;;1.50;;
71484;SDS011;59300;52.074;4.758;2022-07-22T07:45:07;3.80;;;1.50;;
71484;SDS011;59300;52.074;4.758;2022-07-22T07:48:26;4.25;;;1.40;;
71484;SDS011;59300;52.074;4.758;2022-07-22T07:51:45;7.97;;;1.70;;
71484;SDS011;59300;52.074;4.758;2022-07-22T07:55:05;5.90;;;1.67;;
71484;SDS011;59300;52.074;4.758;2022-07-22T07:58:25;5.80;;;1.38;;
71484;SDS011;59300;52.074;4.758;2022-07-22T08:01:44;6.10;;;1.45;;
71484;SDS011;59300;52.074;4.758;2022-07-22T08:05:03;4.10;;;1.35;;
71484;SDS011;59300;52.074;4.758;2022-07-22T08:08:23;3.70;;;1.25;;
71484;SDS011;59300;52.074;4.758;2022-07-22T08:11:43;3.63;;;1.27;;
71484;SDS011;59300;52.074;4.758;2022-07-22T08:15:32;3.60;;;1.30;;
71484;SDS011;59300;52.074;4.758;2022-07-22T08:18:58;6.22;;;1.40;;
71484;SDS011;59300;52.074;4.758;2022-07-22T08:22:17;4.18;;;1.40;;
71484;SDS011;59300;52.074;4.758;2022-07-22T08:25:38;5.72;;;1.20;;
71484;SDS011;59300;52.074;4.758;2022-07-22T08:28:57;6.03;;;1.40;;
71484;SDS011;59300;52.074;4.758;2022-07-22T08:32:16;5.18;;;1.45;;
71484;SDS011;59300;52.074;4.758;2022-07-22T08:35:35;4.80;;;1.88;;
71484;SDS011;59300;52.074;4.758;2022-07-22T08:38:55;3.45;;;1.30;;
71484;SDS011;59300;52.074;4.758;2022-07-22T08:42:15;6.13;;;1.30;;
71484;SDS011;59300;52.074;4.758;2022-07-22T08:45:34;3.83;;;1.27;;
71484;SDS011;59300;52.074;4.758;2022-07-22T08:48:53;1.27;;;1.00;;
71484;SDS011;59300;52.074;4.758;2022-07-22T08:52:17;8.93;;;1.40;;
71484;SDS011;59300;52.074;4.758;2022-07-22T08:55:42;4.50;;;1.23;;
71484;SDS011;59300;52.074;4.758;2022-07-22T08:59:01;4.35;;;1.27;;
71484;SDS011;59300;52.074;4.758;2022-07-22T09:02:21;2.95;;;1.38;;
71484;SDS011;59300;52.074;4.758;2022-07-22T09:05:42;5.00;;;1.27;;
71484;SDS011;59300;52.074;4.758;2022-07-22T09:09:03;4.07;;;1.30;;
71484;SDS011;59300;52.074;4.758;2022-07-22T09:12:56;6.13;;;1.58;;
71484;SDS011;59300;52.074;4.758;2022-07-22T09:16:46;4.70;;;1.40;;
71484;SDS011;59300;52.074;4.758;2022-07-22T09:20:20;2.80;;;1.50;;
71484;SDS011;59300;52.074;4.758;2022-07-22T09:24:03;4.32;;;1.38;;
71484;SDS011;59300;52.074;4.758;2022-07-22T09:27:23;4.85;;;1.48;;
71484;SDS011;59300;52.074;4.758;2022-07-22T09:31:22;3.88;;;1.25;;
71484;SDS011;59300;52.074;4.758;2022-07-22T09:34:48;4.20;;;1.20;;
71484;SDS011;59300;52.074;4.758;2022-07-22T09:38:15;6.10;;;1.48;;
71484;SDS011;59300;52.074;4.758;2022-07-22T09:41:35;5.75;;;1.30;;
71484;SDS011;59300;52.074;4.758;2022-07-22T09:45:15;2.10;;;1.00;;
71484;SDS011;59300;52.074;4.758;2022-07-22T09:48:34;3.47;;;1.20;;
71484;SDS011;59300;52.074;4.758;2022-07-22T09:52:14;3.33;;;1.30;;
71484;SDS011;59300;52.074;4.758;2022-07-22T09:55:51;2.70;;;1.20;;
71484;SDS011;59300;52.074;4.758;2022-07-22T09:59:11;4.63;;;1.40;;
71484;SDS011;59300;52.074;4.758;2022-07-22T10:02:33;3.58;;;1.77;;
71484;SDS011;59300;52.074;4.758;2022-07-22T10:05:58;4.47;;;1.55;;
71484;SDS011;59300;52.074;4.758;2022-07-22T10:09:19;3.28;;;1.55;;
71484;SDS011;59300;52.074;4.758;2022-07-22T10:12:41;4.32;;;1.50;;
71484;SDS011;59300;52.074;4.758;2022-07-22T10:16:01;4.13;;;1.70;;
71484;SDS011;59300;52.074;4.758;2022-07-22T10:19:21;4.10;;;1.50;;
71484;SDS011;59300;52.074;4.758;2022-07-22T10:26:02;2.90;;;1.48;;
71484;SDS011;59300;52.074;4.758;2022-07-22T10:29:38;3.22;;;1.63;;
71484;SDS011;59300;52.074;4.758;2022-07-22T10:33:06;5.10;;;1.50;;
71484;SDS011;59300;52.074;4.758;2022-07-22T10:36:44;3.50;;;1.75;;
71484;SDS011;59300;52.074;4.758;2022-07-22T10:40:17;2.53;;;1.48;;
71484;SDS011;59300;52.074;4.758;2022-07-22T10:47:02;3.58;;;1.88;;
71484;SDS011;59300;52.074;4.758;2022-07-22T10:53:57;6.43;;;1.80;;
71484;SDS011;59300;52.074;4.758;2022-07-22T11:00:47;4.30;;;1.92;;
71484;SDS011;59300;52.074;4.758;2022-07-22T11:04:07;7.60;;;2.00;;
71484;SDS011;59300;52.074;4.758;2022-07-22T11:07:28;6.85;;;2.10;;
71484;SDS011;59300;52.074;4.758;2022-07-22T11:10:47;6.75;;;1.83;;
71484;SDS011;59300;52.074;4.758;2022-07-22T11:14:11;3.80;;;1.80;;
71484;SDS011;59300;52.074;4.758;2022-07-22T11:17:40;11.35;;;2.30;;
71484;SDS011;59300;52.074;4.758;2022-07-22T11:20:59;4.10;;;2.00;;
71484;SDS011;59300;52.074;4.758;2022-07-22T11:24:18;3.88;;;1.90;;
71484;SDS011;59300;52.074;4.758;2022-07-22T11:27:37;3.55;;;2.05;;
71484;SDS011;59300;52.074;4.758;2022-07-22T11:31:06;4.45;;;1.90;;
71484;SDS011;59300;52.074;4.758;2022-07-22T11:34:26;5.72;;;2.08;;
71484;SDS011;59300;52.074;4.758;2022-07-22T11:37:54;6.90;;;2.00;;
71484;SDS011;59300;52.074;4.758;2022-07-22T11:41:15;4.40;;;1.70;;
71484;SDS011;59300;52.074;4.758;2022-07-22T11:44:36;4.68;;;1.85;;
71484;SDS011;59300;52.074;4.758;2022-07-22T11:47:56;2.95;;;1.48;;
71484;SDS011;59300;52.074;4.758;2022-07-22T11:51:15;3.38;;;1.60;;
71484;SDS011;59300;52.074;4.758;2022-07-22T11:54:34;4.28;;;1.63;;
71484;SDS011;59300;52.074;4.758;2022-07-22T11:57:53;4.03;;;1.65;;
71484;SDS011;59300;52.074;4.758;2022-07-22T12:01:13;7.00;;;1.83;;
71484;SDS011;59300;52.074;4.758;2022-07-22T12:04:33;5.93;;;1.63;;
71484;SDS011;59300;52.074;4.758;2022-07-22T12:07:53;6.97;;;1.70;;
71484;SDS011;59300;52.074;4.758;2022-07-22T12:11:12;3.97;;;1.42;;
71484;SDS011;59300;52.074;4.758;2022-07-22T12:14:34;4.20;;;1.48;;
71484;SDS011;59300;52.074;4.758;2022-07-22T12:17:53;2.65;;;1.33;;
71484;SDS011;59300;52.074;4.758;2022-07-22T12:21:12;1.98;;;1.38;;
71484;SDS011;59300;52.074;4.758;2022-07-22T12:24:32;8.55;;;1.40;;
71484;SDS011;59300;52.074;4.758;2022-07-22T12:28:00;3.78;;;1.63;;
71484;SDS011;59300;52.074;4.758;2022-07-22T12:31:20;4.70;;;1.30;;
71484;SDS011;59300;52.074;4.758;2022-07-22T12:37:57;3.40;;;1.17;;
71484;SDS011;59300;52.074;4.758;2022-07-22T12:41:26;2.13;;;1.00;;
71484;SDS011;59300;52.074;4.758;2022-07-22T12:48:27;5.53;;;1.38;;
71484;SDS011;59300;52.074;4.758;2022-07-22T12:55:28;3.58;;;1.40;;
71484;SDS011;59300;52.074;4.758;2022-07-22T12:58:47;2.25;;;1.40;;
71484;SDS011;59300;52.074;4.758;2022-07-22T13:02:06;2.33;;;1.20;;
71484;SDS011;59300;52.074;4.758;2022-07-22T13:05:26;3.20;;;1.38;;
71484;SDS011;59300;52.074;4.758;2022-07-22T13:08:45;5.57;;;1.15;;
71484;SDS011;59300;52.074;4.758;2022-07-22T13:12:04;3.28;;;1.25;;
71484;SDS011;59300;52.074;4.758;2022-07-22T13:15:23;3.55;;;1.20;;
71484;SDS011;59300;52.074;4.758;2022-07-22T13:18:42;3.22;;;1.10;;
71484;SDS011;59300;52.074;4.758;2022-07-22T13:22:01;3.10;;;1.30;;
71484;SDS011;59300;52.074;4.758;2022-07-22T13:25:20;4.03;;;1.67;;
71484;SDS011;59300;52.074;4.758;2022-07-22T13:28:38;5.53;;;1.95;;
71484;SDS011;59300;52.074;4.758;2022-07-22T13:31:57;2.80;;;1.50;;
71484;SDS011;59300;52.074;4.758;2022-07-22T13:35:16;5.38;;;1.60;;
71484;SDS011;59300;52.074;4.758;2022-07-22T13:38:36;3.75;;;2.00;;
71484;SDS011;59300;52.074;4.758;2022-07-22T13:41:55;3.78;;;1.65;;
71484;SDS011;59300;52.074;4.758;2022-07-22T13:45:14;6.47;;;2.00;;
71484;SDS011;59300;52.074;4.758;2022-07-22T13:48:32;3.00;;;1.50;;
71484;SDS011;59300;52.074;4.758;2022-07-22T13:51:52;4.93;;;1.88;;
71484;SDS011;59300;52.074;4.758;2022-07-22T13:55:10;4.90;;;1.80;;
71484;SDS011;59300;52.074;4.758;2022-07-22T13:58:29;4.95;;;2.08;;
71484;SDS011;59300;52.074;4.758;2022-07-22T14:01:49;3.65;;;1.80;;
71484;SDS011;59300;52.074;4.758;2022-07-22T14:05:08;7.47;;;2.10;;
71484;SDS011;59300;52.074;4.758;2022-07-22T14:08:27;3.05;;;1.98;;
71484;SDS011;59300;52.074;4.758;2022-07-22T14:11:46;4.45;;;1.75;;
71484;SDS011;59300;52.074;4.758;2022-07-22T14:15:06;5.03;;;1.83;;
71484;SDS011;59300;52.074;4.758;2022-07-22T14:18:26;3.72;;;1.80;;
71484;SDS011;59300;52.074;4.758;2022-07-22T14:21:46;5.05;;;1.80;;
71484;SDS011;59300;52.074;4.758;2022-07-22T14:25:05;6.13;;;1.90;;
71484;SDS011;59300;52.074;4.758;2022-07-22T14:28:24;4.07;;;2.00;;
71484;SDS011;59300;52.074;4.758;2022-07-22T14:31:43;4.95;;;1.83;;
71484;SDS011;59300;52.074;4.758;2022-07-22T14:35:02;3.03;;;1.77;;
71484;SDS011;59300;52.074;4.758;2022-07-22T14:38:22;5.03;;;2.13;;
71484;SDS011;59300;52.074;4.758;2022-07-22T14:41:41;3.80;;;1.90;;
71484;SDS011;59300;52.074;4.758;2022-07-22T14:45:00;3.15;;;1.98;;
71484;SDS011;59300;52.074;4.758;2022-07-22T14:48:19;4.30;;;2.13;;
71484;SDS011;59300;52.074;4.758;2022-07-22T14:51:38;3.30;;;1.90;;
71484;SDS011;59300;52.074;4.758;2022-07-22T14:54:57;4.13;;;2.42;;
71484;SDS011;59300;52.074;4.758;2022-07-22T14:58:16;6.00;;;3.15;;
71484;SDS011;59300;52.074;4.758;2022-07-22T15:01:34;7.03;;;2.80;;
71484;SDS011;59300;52.074;4.758;2022-07-22T15:04:53;4.88;;;2.40;;
71484;SDS011;59300;52.074;4.758;2022-07-22T15:08:12;6.57;;;2.85;;
71484;SDS011;59300;52.074;4.758;2022-07-22T15:11:31;5.78;;;3.40;;
71484;SDS011;59300;52.074;4.758;2022-07-22T15:14:50;5.78;;;2.65;;
71484;SDS011;59300;52.074;4.758;2022-07-22T15:18:09;5.75;;;3.10;;
71484;SDS011;59300;52.074;4.758;2022-07-22T15:21:28;5.22;;;2.53;;
71484;SDS011;59300;52.074;4.758;2022-07-22T15:24:47;8.43;;;2.90;;
71484;SDS011;59300;52.074;4.758;2022-07-22T15:28:06;7.00;;;3.03;;
71484;SDS011;59300;52.074;4.758;2022-07-22T15:31:25;4.55;;;3.10;;
71484;SDS011;59300;52.074;4.758;2022-07-22T15:34:45;5.10;;;3.25;;
71484;SDS011;59300;52.074;4.758;2022-07-22T15:38:03;4.97;;;2.95;;
71484;SDS011;59300;52.074;4.758;2022-07-22T15:41:22;6.20;;;3.40;;
71484;SDS011;59300;52.074;4.758;2022-07-22T15:44:41;4.15;;;2.90;;
71484;SDS011;59300;52.074;4.758;2022-07-22T15:48:01;6.72;;;3.70;;
71484;SDS011;59300;52.074;4.758;2022-07-22T15:51:20;5.47;;;3.25;;
71484;SDS011;59300;52.074;4.758;2022-07-22T15:54:39;7.80;;;3.83;;
71484;SDS011;59300;52.074;4.758;2022-07-22T15:57:58;5.70;;;3.50;;
71484;SDS011;59300;52.074;4.758;2022-07-22T16:01:17;6.43;;;3.47;;
71484;SDS011;59300;52.074;4.758;2022-07-22T16:04:36;5.07;;;3.40;;
71484;SDS011;59300;52.074;4.758;2022-07-22T16:07:55;6.53;;;3.88;;
71484;SDS011;59300;52.074;4.758;2022-07-22T16:11:14;8.98;;;3.83;;
71484;SDS011;59300;52.074;4.758;2022-07-22T16:14:33;3.50;;;3.20;;
71484;SDS011;59300;52.074;4.758;2022-07-22T16:17:52;5.22;;;3.58;;
71484;SDS011;59300;52.074;4.758;2022-07-22T16:21:11;6.32;;;2.90;;
71484;SDS011;59300;52.074;4.758;2022-07-22T16:24:30;7.95;;;3.15;;
71484;SDS011;59300;52.074;4.758;2022-07-22T16:27:49;7.00;;;2.65;;
71484;SDS011;59300;52.074;4.758;2022-07-22T16:31:08;3.03;;;2.15;;
71484;SDS011;59300;52.074;4.758;2022-07-22T16:34:27;6.20;;;2.17;;
71484;SDS011;59300;52.074;4.758;2022-07-22T16:37:46;4.60;;;1.92;;
71484;SDS011;59300;52.074;4.758;2022-07-22T16:41:06;5.50;;;2.50;;
71484;SDS011;59300;52.074;4.758;2022-07-22T16:44:25;4.68;;;2.50;;
71484;SDS011;59300;52.074;4.758;2022-07-22T16:47:44;4.93;;;2.40;;
71484;SDS011;59300;52.074;4.758;2022-07-22T16:51:02;3.72;;;2.80;;
71484;SDS011;59300;52.074;4.758;2022-07-22T16:54:22;5.80;;;2.78;;
71484;SDS011;59300;52.074;4.758;2022-07-22T16:57:40;6.95;;;2.85;;
71484;SDS011;59300;52.074;4.758;2022-07-22T17:00:59;5.90;;;2.50;;
71484;SDS011;59300;52.074;4.758;2022-07-22T17:04:18;6.50;;;2.60;;
71484;SDS011;59300;52.074;4.758;2022-07-22T17:07:37;4.65;;;2.63;;
71484;SDS011;59300;52.074;4.758;2022-07-22T17:10:56;5.57;;;2.60;;
71484;SDS011;59300;52.074;4.758;2022-07-22T17:14:15;5.45;;;2.17;;
71484;SDS011;59300;52.074;4.758;2022-07-22T17:17:34;4.35;;;1.83;;
71484;SDS011;59300;52.074;4.758;2022-07-22T17:20:53;2.50;;;1.75;;
71484;SDS011;59300;52.074;4.758;2022-07-22T17:24:12;6.82;;;2.03;;
71484;SDS011;59300;52.074;4.758;2022-07-22T17:27:31;3.30;;;1.95;;
71484;SDS011;59300;52.074;4.758;2022-07-22T17:30:50;4.47;;;1.90;;
71484;SDS011;59300;52.074;4.758;2022-07-22T17:34:09;5.18;;;2.10;;
71484;SDS011;59300;52.074;4.758;2022-07-22T17:37:28;3.25;;;1.88;;
71484;SDS011;59300;52.074;4.758;2022-07-22T17:40:47;6.18;;;2.45;;
71484;SDS011;59300;52.074;4.758;2022-07-22T17:44:06;6.35;;;1.77;;
71484;SDS011;59300;52.074;4.758;2022-07-22T17:47:25;6.38;;;2.00;;
71484;SDS011;59300;52.074;4.758;2022-07-22T17:50:44;4.90;;;2.00;;
71484;SDS011;59300;52.074;4.758;2022-07-22T17:54:03;4.80;;;1.70;;
71484;SDS011;59300;52.074;4.758;2022-07-22T17:57:22;4.13;;;1.95;;
71484;SDS011;59300;52.074;4.758;2022-07-22T18:00:41;4.70;;;2.42;;
71484;SDS011;59300;52.074;4.758;2022-07-22T18:04:00;5.00;;;1.80;;
71484;SDS011;59300;52.074;4.758;2022-07-22T18:07:19;3.75;;;1.80;;
71484;SDS011;59300;52.074;4.758;2022-07-22T18:10:37;6.72;;;2.35;;
71484;SDS011;59300;52.074;4.758;2022-07-22T18:13:56;4.47;;;1.88;;
71484;SDS011;59300;52.074;4.758;2022-07-22T18:17:15;7.18;;;1.85;;
71484;SDS011;59300;52.074;4.758;2022-07-22T18:20:34;5.90;;;2.00;;
71484;SDS011;59300;52.074;4.758;2022-07-22T18:23:53;4.03;;;1.67;;
71484;SDS011;59300;52.074;4.758;2022-07-22T18:27:12;4.53;;;1.95;;
71484;SDS011;59300;52.074;4.758;2022-07-22T18:30:31;4.95;;;2.15;;
71484;SDS011;59300;52.074;4.758;2022-07-22T18:33:50;2.75;;;1.67;;
71484;SDS011;59300;52.074;4.758;2022-07-22T18:37:09;5.47;;;1.90;;
71484;SDS011;59300;52.074;4.758;2022-07-22T18:40:28;6.88;;;2.50;;
71484;SDS011;59300;52.074;4.758;2022-07-22T18:43:47;5.85;;;2.20;;
71484;SDS011;59300;52.074;4.758;2022-07-22T18:47:06;3.83;;;2.20;;
71484;SDS011;59300;52.074;4.758;2022-07-22T18:50:25;5.10;;;2.80;;
71484;SDS011;59300;52.074;4.758;2022-07-22T18:53:44;3.75;;;2.75;;
71484;SDS011;59300;52.074;4.758;2022-07-22T18:57:03;4.25;;;2.60;;
71484;SDS011;59300;52.074;4.758;2022-07-22T19:00:22;5.78;;;2.70;;
71484;SDS011;59300;52.074;4.758;2022-07-22T19:03:41;7.78;;;2.10;;
71484;SDS011;59300;52.074;4.758;2022-07-22T19:07:00;7.43;;;2.70;;
71484;SDS011;59300;52.074;4.758;2022-07-22T19:10:19;3.53;;;2.30;;
71484;SDS011;59300;52.074;4.758;2022-07-22T19:13:39;3.85;;;2.50;;
71484;SDS011;59300;52.074;4.758;2022-07-22T19:16:58;5.80;;;2.42;;
71484;SDS011;59300;52.074;4.758;2022-07-22T19:20:16;5.85;;;2.33;;
71484;SDS011;59300;52.074;4.758;2022-07-22T19:23:35;5.40;;;2.30;;
71484;SDS011;59300;52.074;4.758;2022-07-22T19:26:55;5.65;;;2.35;;
71484;SDS011;59300;52.074;4.758;2022-07-22T19:30:14;4.53;;;2.55;;
71484;SDS011;59300;52.074;4.758;2022-07-22T19:33:33;3.67;;;2.40;;
71484;SDS011;59300;52.074;4.758;2022-07-22T19:36:52;6.20;;;2.30;;
71484;SDS011;59300;52.074;4.758;2022-07-22T19:40:11;3.80;;;2.38;;
71484;SDS011;59300;52.074;4.758;2022-07-22T19:43:31;4.93;;;2.35;;
71484;SDS011;59300;52.074;4.758;2022-07-22T19:46:51;5.43;;;2.30;;
71484;SDS011;59300;52.074;4.758;2022-07-22T19:50:10;3.03;;;2.30;;
71484;SDS011;59300;52.074;4.758;2022-07-22T19:53:28;5.00;;;2.95;;
71484;SDS011;59300;52.074;4.758;2022-07-22T19:56:47;2.42;;;2.10;;
71484;SDS011;59300;52.074;4.758;2022-07-22T20:00:09;5.38;;;2.83;;
71484;SDS011;59300;52.074;4.758;2022-07-22T20:03:31;9.20;;;2.95;;
71484;SDS011;59300;52.074;4.758;2022-07-22T20:06:50;4.35;;;2.85;;
71484;SDS011;59300;52.074;4.758;2022-07-22T20:10:09;5.57;;;2.83;;
71484;SDS011;59300;52.074;4.758;2022-07-22T20:13:28;5.80;;;3.28;;
71484;SDS011;59300;52.074;4.758;2022-07-22T20:16:47;5.60;;;3.05;;
71484;SDS011;59300;52.074;4.758;2022-07-22T20:20:06;5.28;;;3.30;;
71484;SDS011;59300;52.074;4.758;2022-07-22T20:23:26;8.88;;;2.97;;
71484;SDS011;59300;52.074;4.758;2022-07-22T20:26:45;5.28;;;3.28;;
71484;SDS011;59300;52.074;4.758;2022-07-22T20:30:04;5.90;;;3.22;;
71484;SDS011;59300;52.074;4.758;2022-07-22T20:33:23;5.90;;;3.50;;
71484;SDS011;59300;52.074;4.758;2022-07-22T20:36:42;7.13;;;3.88;;